Wetterdaten: Woche 08.02.10 - 14.02.10 (KW6)
Datum Zeit Temp. A. Feuchte A. Luftdruck Regen Wind Richtung Taupunkt Windchill Windben
08.02.2010 00:00 -4,9 C 75 % 1018,5 hPa 0,0 l/m 3,6 km/h NW -8,7 C -4,9 C 8,4 km/h
08.02.2010 01:00 -4,7 C 74 % 1017,8 hPa 0,0 l/m 4,0 km/h NW -8,6 C -4,7 C 8,8 km/h
08.02.2010 02:00 -4,6 C 75 % 1017,3 hPa 0,0 l/m 1,5 km/h N-NW -8,3 C -4,6 C 5,6 km/h
08.02.2010 03:00 -4,4 C 77 % 1017,0 hPa 0,0 l/m 4,2 km/h N-NW -7,9 C -4,4 C 10,9 km/h
08.02.2010 04:00 -4,7 C 78 % 1016,7 hPa 0,0 l/m 5,3 km/h N-NW -8,0 C -4,7 C 13,7 km/h
08.02.2010 05:00 -4,9 C 79 % 1016,3 hPa 0,0 l/m 4,7 km/h NW -7,9 C -4,9 C 13,3 km/h
08.02.2010 06:00 -4,9 C 81 % 1016,1 hPa 0,0 l/m 2,8 km/h N-NW -7,7 C -4,9 C 7,6 km/h
08.02.2010 07:00 -5,0 C 82 % 1015,8 hPa 0,0 l/m 2,4 km/h NW -7,6 C -5,0 C 8,4 km/h
08.02.2010 08:00 -5,1 C 83 % 1015,6 hPa 0,0 l/m 3,6 km/h N-NW -7,5 C -5,1 C 8,9 km/h
08.02.2010 09:00 -4,9 C 81 % 1015,2 hPa 0,0 l/m 4,7 km/h N-NW -7,6 C -4,9 C 9,7 km/h
08.02.2010 10:00 -4,6 C 75 % 1014,9 hPa 0,0 l/m 6,4 km/h N-NW -8,2 C -5,1 C 16,1 km/h
08.02.2010 11:00 -4,1 C 72 % 1014,3 hPa 0,0 l/m 5,7 km/h NW -8,3 C -4,4 C 13,7 km/h
08.02.2010 12:00 -4,0 C 70 % 1013,5 hPa 0,0 l/m 6,6 km/h NW -8,6 C -4,5 C 13,7 km/h
08.02.2010 13:00 -3,7 C 68 % 1012,5 hPa 0,0 l/m 5,0 km/h NO -8,7 C -3,7 C 9,7 km/h
08.02.2010 14:00 -3,3 C 69 % 1011,9 hPa 0,0 l/m 3,3 km/h N-NO -8,2 C -3,3 C 9,3 km/h
08.02.2010 15:00 -3,4 C 69 % 1011,7 hPa 0,0 l/m 3,8 km/h N-NW -8,2 C -3,4 C 9,7 km/h
08.02.2010 16:00 -4,0 C 69 % 1011,5 hPa 0,0 l/m 3,3 km/h N-NW -8,8 C -4,0 C 8,0 km/h
08.02.2010 17:00 -4,5 C 69 % 1011,5 hPa 0,0 l/m 2,3 km/h NW -9,3 C -4,5 C 6,8 km/h
08.02.2010 18:00 -4,7 C 68 % 1011,4 hPa 0,0 l/m 3,1 km/h NW -9,6 C -4,7 C 8,0 km/h
08.02.2010 19:00 -5,0 C 68 % 1011,5 hPa 0,0 l/m 1,2 km/h NW -10,1 C -5,0 C 4,8 km/h
08.02.2010 20:00 -5,7 C 70 % 1011,6 hPa 0,0 l/m 0,3 km/h N-NW -10,3 C -5,7 C 1,6 km/h
08.02.2010 21:00 -5,4 C 71 % 1011,3 hPa 0,0 l/m 0,8 km/h W-NW -9,8 C -5,4 C 3,6 km/h
08.02.2010 22:00 -5,1 C 72 % 1010,8 hPa 0,0 l/m 0,7 km/h N -9,4 C -5,1 C 3,2 km/h
08.02.2010 23:00 -5,1 C 71 % 1010,4 hPa 0,0 l/m 0,6 km/h N -9,5 C -5,1 C 3,2 km/h
09.02.2010 00:00 -5,1 C 72 % 1010,0 hPa 0,0 l/m 0,4 km/h N -9,4 C -5,1 C 2,0 km/h
09.02.2010 01:00 -4,9 C 72 % 1009,5 hPa 0,0 l/m 0,0 km/h N -9,2 C -4,9 C 1,2 km/h
09.02.2010 02:00 -5,0 C 72 % 1009,5 hPa 0,0 l/m 0,9 km/h O-SO -9,2 C -5,0 C 3,6 km/h
09.02.2010 03:00 -5,2 C 73 % 1009,0 hPa 0,0 l/m 2,3 km/h O -9,2 C -5,2 C 5,6 km/h
09.02.2010 04:00 -5,3 C 76 % 1008,8 hPa 0,0 l/m 1,1 km/h O-SO -9,0 C -5,3 C 5,2 km/h
09.02.2010 05:00 -5,5 C 78 % 1008,7 hPa 0,0 l/m 2,3 km/h O -8,7 C -5,5 C 6,0 km/h
09.02.2010 06:00 -5,7 C 79 % 1008,4 hPa 0,0 l/m 3,0 km/h O -8,7 C -5,7 C 7,6 km/h
09.02.2010 07:00 -5,7 C 80 % 1008,5 hPa 0,0 l/m 2,4 km/h O -8,6 C -5,7 C 6,0 km/h
09.02.2010 08:00 -5,4 C 80 % 1008,6 hPa 0,0 l/m 1,5 km/h O-SO -8,3 C -5,4 C 6,0 km/h
09.02.2010 09:00 -4,8 C 81 % 1008,4 hPa 0,0 l/m 2,8 km/h O -7,5 C -4,8 C 8,9 km/h
09.02.2010 10:00 -3,9 C 83 % 1008,2 hPa 0,0 l/m 4,6 km/h O-NO -6,4 C -3,9 C 10,1 km/h
09.02.2010 11:00 -3,3 C 81 % 1008,0 hPa 0,0 l/m 3,8 km/h O-SO -6,1 C -3,3 C 10,9 km/h
09.02.2010 12:00 -2,8 C 79 % 1007,3 hPa 0,0 l/m 3,7 km/h SO -5,9 C -2,8 C 11,7 km/h
09.02.2010 13:00 -2,2 C 75 % 1006,9 hPa 0,0 l/m 3,5 km/h S-SO -6,1 C -2,2 C 10,9 km/h
09.02.2010 14:00 -2,3 C 73 % 1006,5 hPa 0,0 l/m 3,6 km/h O-SO -6,4 C -2,3 C 11,3 km/h
09.02.2010 15:00 -2,6 C 74 % 1006,4 hPa 0,0 l/m 3,7 km/h O -6,7 C -2,6 C 10,9 km/h
09.02.2010 16:00 -2,9 C 75 % 1006,4 hPa 0,0 l/m 2,6 km/h S-SO -6,6 C -2,9 C 9,6 km/h
09.02.2010 17:00 -3,2 C 77 % 1006,3 hPa 0,0 l/m 2,1 km/h O-SO -6,7 C -3,2 C 8,4 km/h
09.02.2010 18:00 -3,3 C 78 % 1006,3 hPa 0,0 l/m 2,5 km/h SO -6,7 C -3,3 C 8,1 km/h
09.02.2010 19:00 -3,4 C 78 % 1006,2 hPa 0,0 l/m 3,0 km/h S-SO -6,7 C -3,4 C 9,3 km/h
09.02.2010 20:00 -3,4 C 78 % 1005,9 hPa 0,0 l/m 3,7 km/h S-SO -6,6 C -3,4 C 11,3 km/h
09.02.2010 21:00 -3,4 C 79 % 1005,9 hPa 0,0 l/m 2,2 km/h O-SO -6,5 C -3,4 C 7,6 km/h
09.02.2010 22:00 -3,4 C 80 % 1005,9 hPa 0,0 l/m 2,3 km/h S-SO -6,3 C -3,4 C 7,2 km/h
09.02.2010 23:00 -3,3 C 80 % 1005,5 hPa 0,0 l/m 2,8 km/h S-SO -6,3 C -3,3 C 9,3 km/h
10.02.2010 00:00 -3,3 C 80 % 1005,3 hPa 0,0 l/m 2,0 km/h S-SO -6,2 C -3,3 C 7,2 km/h
10.02.2010 01:00 -3,4 C 81 % 1005,2 hPa 0,0 l/m 0,9 km/h SO -6,1 C -3,4 C 5,6 km/h
10.02.2010 02:00 -3,7 C 83 % 1005,1 hPa 0,0 l/m 1,0 km/h S-SO -6,2 C -3,7 C 6,0 km/h
10.02.2010 03:00 -3,6 C 84 % 1004,8 hPa 0,0 l/m 1,0 km/h S -5,9 C -3,6 C 6,8 km/h
10.02.2010 04:00 -3,7 C 84 % 1004,9 hPa 0,0 l/m 1,2 km/h O -6,0 C -3,7 C 6,0 km/h
10.02.2010 05:00 -3,6 C 85 % 1005,1 hPa 0,0 l/m 0,8 km/h N -5,7 C -3,6 C 5,6 km/h
10.02.2010 06:00 -3,4 C 85 % 1005,1 hPa 0,0 l/m 1,7 km/h O -5,5 C -3,4 C 6,4 km/h
10.02.2010 07:00 -3,4 C 85 % 1005,5 hPa 0,0 l/m 2,7 km/h O-SO -5,5 C -3,4 C 8,8 km/h
10.02.2010 08:00 -3,3 C 85 % 1005,8 hPa 0,0 l/m 1,3 km/h O-SO -5,4 C -3,3 C 6,0 km/h
10.02.2010 09:00 -3,0 C 84 % 1005,9 hPa 0,0 l/m 1,0 km/h O -5,3 C -3,0 C 4,8 km/h
10.02.2010 10:00 -2,8 C 85 % 1006,1 hPa 0,0 l/m 2,2 km/h O -4,9 C -2,8 C 6,4 km/h
10.02.2010 11:00 -2,6 C 87 % 1006,0 hPa 0,0 l/m 2,1 km/h O -4,5 C -2,6 C 6,4 km/h
10.02.2010 12:00 -2,2 C 87 % 1005,8 hPa 0,0 l/m 0,4 km/h N -4,1 C -2,2 C 2,4 km/h
10.02.2010 13:00 -1,5 C 88 % 1005,5 hPa 0,0 l/m 0,2 km/h N -3,3 C -1,5 C 1,6 km/h
10.02.2010 14:00 -1,0 C 87 % 1005,1 hPa 0,3 l/m 0,2 km/h N -3,0 C -1,0 C 2,0 km/h
10.02.2010 15:00 -1,1 C 86 % 1004,9 hPa 0,0 l/m 0,6 km/h N-NW -3,1 C -1,1 C 3,2 km/h
10.02.2010 16:00 -1,5 C 86 % 1004,8 hPa 0,0 l/m 2,9 km/h NW -3,6 C -1,5 C 8,1 km/h
10.02.2010 17:00 -1,8 C 84 % 1004,8 hPa 0,0 l/m 1,6 km/h W -4,2 C -1,8 C 5,6 km/h
10.02.2010 18:00 -2,1 C 82 % 1004,8 hPa 0,0 l/m 2,7 km/h W -4,8 C -2,1 C 9,3 km/h
10.02.2010 19:00 -2,3 C 81 % 1004,5 hPa 0,0 l/m 3,6 km/h W -5,1 C -2,3 C 10,9 km/h
10.02.2010 20:00 -2,5 C 82 % 1004,3 hPa 0,0 l/m 4,8 km/h W -5,2 C -2,5 C 14,5 km/h
10.02.2010 21:00 -2,9 C 85 % 1004,3 hPa 0,0 l/m 4,4 km/h NW -5,1 C -2,9 C 10,5 km/h
10.02.2010 22:00 -3,2 C 88 % 1003,6 hPa 0,0 l/m 5,6 km/h W -4,9 C -3,2 C 14,5 km/h
10.02.2010 23:00 -3,2 C 88 % 1002,9 hPa 0,0 l/m 4,8 km/h W -4,8 C -3,2 C 13,7 km/h
11.02.2010 00:00 -3,1 C 88 % 1002,5 hPa 0,0 l/m 4,8 km/h W-NW -4,9 C -3,1 C 14,9 km/h
11.02.2010 01:00 -3,3 C 87 % 1002,0 hPa 0,0 l/m 5,2 km/h W -5,1 C -3,3 C 14,5 km/h
11.02.2010 02:00 -3,2 C 88 % 1001,4 hPa 0,0 l/m 5,3 km/h W-NW -4,9 C -3,2 C 17,3 km/h
11.02.2010 03:00 -3,1 C 86 % 1001,2 hPa 0,0 l/m 6,1 km/h W-NW -5,1 C -3,3 C 16,5 km/h
11.02.2010 04:00 -3,3 C 86 % 1001,2 hPa 0,0 l/m 4,8 km/h NW -5,2 C -3,3 C 12,9 km/h
11.02.2010 05:00 -3,4 C 87 % 1000,9 hPa 0,0 l/m 5,1 km/h W-NW -5,3 C -3,4 C 11,7 km/h
11.02.2010 06:00 -3,3 C 87 % 1000,7 hPa 0,0 l/m 5,4 km/h NW -5,1 C -3,3 C 15,7 km/h
11.02.2010 07:00 -3,3 C 87 % 1000,9 hPa 0,0 l/m 5,8 km/h W-NW -5,2 C -3,4 C 13,3 km/h
11.02.2010 08:00 -3,3 C 87 % 1001,5 hPa 0,0 l/m 5,7 km/h W -5,1 C -3,6 C 13,3 km/h
11.02.2010 09:00 -3,3 C 87 % 1001,8 hPa 0,0 l/m 7,0 km/h N-NW -5,2 C -3,9 C 16,1 km/h
11.02.2010 10:00 -3,0 C 84 % 1002,0 hPa 0,0 l/m 7,5 km/h W-NW -5,3 C -4,3 C 18,1 km/h
11.02.2010 11:00 -3,1 C 83 % 1002,3 hPa 0,0 l/m 10,2 km/h N-NW -5,6 C -6,8 C 20,5 km/h
11.02.2010 12:00 -3,2 C 82 % 1002,2 hPa 0,0 l/m 9,3 km/h NW -5,9 C -6,3 C 17,2 km/h
11.02.2010 13:00 -3,1 C 80 % 1002,5 hPa 0,0 l/m 7,5 km/h NW -6,0 C -4,4 C 15,3 km/h
11.02.2010 14:00 -2,9 C 82 % 1002,7 hPa 0,0 l/m 7,3 km/h NW -5,6 C -3,9 C 17,3 km/h
11.02.2010 15:00 -3,1 C 84 % 1002,9 hPa 0,0 l/m 5,2 km/h NW -5,4 C -3,1 C 12,1 km/h
11.02.2010 16:00 -3,3 C 86 % 1003,1 hPa 0,0 l/m 6,1 km/h NW -5,2 C -3,3 C 13,7 km/h
11.02.2010 17:00 -3,5 C 87 % 1003,4 hPa 0,0 l/m 5,7 km/h NW -5,3 C -3,6 C 14,1 km/h
11.02.2010 18:00 -3,6 C 87 % 1003,8 hPa 0,0 l/m 5,3 km/h NW -5,4 C -3,6 C 11,7 km/h
11.02.2010 19:00 -3,6 C 87 % 1004,4 hPa 0,0 l/m 4,7 km/h W-NW -5,4 C -3,6 C 10,9 km/h
11.02.2010 20:00 -3,6 C 87 % 1004,8 hPa 0,0 l/m 5,4 km/h NW -5,5 C -3,6 C 11,7 km/h
11.02.2010 21:00 -3,6 C 86 % 1005,2 hPa 0,0 l/m 5,1 km/h W -5,6 C -3,6 C 12,9 km/h
11.02.2010 22:00 -3,7 C 87 % 1005,5 hPa 0,0 l/m 5,5 km/h NW -5,6 C -3,7 C 12,9 km/h
11.02.2010 23:00 -3,8 C 88 % 1005,9 hPa 0,0 l/m 4,7 km/h NW -5,6 C -3,8 C 12,5 km/h
12.02.2010 00:00 -3,8 C 88 % 1006,1 hPa 0,0 l/m 5,3 km/h N -5,5 C -3,8 C 12,1 km/h
12.02.2010 01:00 -3,8 C 87 % 1006,1 hPa 0,0 l/m 5,5 km/h NW -5,7 C -3,8 C 12,9 km/h
12.02.2010 02:00 -3,8 C 87 % 1006,3 hPa 0,0 l/m 6,1 km/h NW -5,7 C -3,9 C 15,7 km/h
12.02.2010 03:00 -3,8 C 86 % 1006,6 hPa 0,0 l/m 5,8 km/h NW -5,8 C -3,9 C 12,9 km/h
12.02.2010 04:00 -4,0 C 86 % 1006,9 hPa 0,0 l/m 6,3 km/h NW -6,0 C -4,0 C 15,3 km/h
12.02.2010 05:00 -4,1 C 86 % 1007,4 hPa 0,0 l/m 6,7 km/h NW -6,1 C -4,8 C 16,1 km/h
12.02.2010 06:00 -4,4 C 86 % 1007,7 hPa 0,0 l/m 6,4 km/h NW -6,3 C -4,4 C 15,7 km/h
12.02.2010 07:00 -4,1 C 85 % 1008,5 hPa 0,0 l/m 7,5 km/h NW -6,3 C -5,4 C 19,7 km/h
12.02.2010 08:00 -4,2 C 85 % 1009,0 hPa 0,0 l/m 8,0 km/h NW -6,3 C -6,0 C 18,9 km/h
12.02.2010 09:00 -3,6 C 83 % 1009,3 hPa 0,0 l/m 8,8 km/h NW -6,1 C -6,2 C 21,7 km/h
12.02.2010 10:00 -3,0 C 78 % 1009,7 hPa 0,0 l/m 9,3 km/h NW -6,2 C -5,9 C 21,3 km/h
12.02.2010 11:00 -2,5 C 75 % 1009,9 hPa 0,0 l/m 10,7 km/h N-NW -6,3 C -6,8 C 24,9 km/h
12.02.2010 12:00 -2,2 C 74 % 1009,8 hPa 0,0 l/m 10,0 km/h NW -6,2 C -5,9 C 22,5 km/h
12.02.2010 13:00 -2,1 C 73 % 1009,8 hPa 0,0 l/m 9,5 km/h NW -6,3 C -5,3 C 21,7 km/h
12.02.2010 14:00 -2,0 C 74 % 1009,8 hPa 0,0 l/m 7,1 km/h NW -6,1 C -3,1 C 15,7 km/h
12.02.2010 15:00 -1,8 C 75 % 1010,0 hPa 0,0 l/m 7,6 km/h NW -5,7 C -3,1 C 16,9 km/h
12.02.2010 16:00 -1,8 C 76 % 1010,4 hPa 0,0 l/m 7,8 km/h NW -5,5 C -3,3 C 16,5 km/h
12.02.2010 17:00 -1,9 C 76 % 1011,0 hPa 0,0 l/m 8,4 km/h NW -5,5 C -4,0 C 20,5 km/h
12.02.2010 18:00 -2,0 C 77 % 1011,4 hPa 0,0 l/m 7,1 km/h NW -5,5 C -3,1 C 18,1 km/h
12.02.2010 19:00 -2,0 C 78 % 1011,5 hPa 0,0 l/m 8,4 km/h NW -5,4 C -4,1 C 20,5 km/h
12.02.2010 20:00 -2,1 C 78 % 1011,6 hPa 0,0 l/m 9,6 km/h NW -5,4 C -5,4 C 21,3 km/h
12.02.2010 21:00 -2,1 C 78 % 1013,0 hPa 0,0 l/m 7,9 km/h NW -5,4 C -3,7 C 19,7 km/h
12.02.2010 22:00 -2,3 C 79 % 1012,8 hPa 0,0 l/m 9,9 km/h NW -5,4 C -5,8 C 22,1 km/h
12.02.2010 23:00 -2,5 C 79 % 1012,0 hPa 0,0 l/m 10,4 km/h NW -5,6 C -6,5 C 25,7 km/h
13.02.2010 00:00 -2,7 C 78 % 1012,2 hPa 0,0 l/m 6,7 km/h NW -5,9 C -3,5 C 16,5 km/h
13.02.2010 01:00 -2,8 C 77 % 1011,7 hPa 0,0 l/m 8,9 km/h N-NW -6,3 C -5,4 C 22,1 km/h
13.02.2010 02:00 -2,7 C 77 % 1011,9 hPa 0,0 l/m 9,4 km/h N-NW -6,2 C -5,7 C 22,1 km/h
13.02.2010 03:00 -2,7 C 75 % 1011,9 hPa 0,0 l/m 9,5 km/h NW -6,5 C -5,9 C 21,3 km/h
13.02.2010 04:00 -2,8 C 75 % 1011,8 hPa 0,0 l/m 11,5 km/h N-NW -6,5 C -7,8 C 26,1 km/h
13.02.2010 05:00 -3,0 C 75 % 1011,5 hPa 0,0 l/m 10,4 km/h NW -6,8 C -7,2 C 23,3 km/h
13.02.2010 06:00 -3,0 C 75 % 1011,1 hPa 0,0 l/m 12,6 km/h W -6,9 C -8,9 C 27,8 km/h
13.02.2010 07:00 -2,8 C 74 % 1011,2 hPa 0,0 l/m 14,2 km/h W-NW -6,8 C -9,8 C 32,6 km/h
13.02.2010 08:00 -2,6 C 73 % 1011,3 hPa 0,0 l/m 13,9 km/h W-NW -6,7 C -9,3 C 31,0 km/h
13.02.2010 09:00 -2,0 C 73 % 1011,5 hPa 0,0 l/m 11,5 km/h W-NW -6,3 C -7,0 C 27,8 km/h
13.02.2010 10:00 -1,6 C 72 % 1011,4 hPa 0,0 l/m 13,2 km/h NW -6,0 C -7,5 C 30,6 km/h
13.02.2010 11:00 -1,1 C 70 % 1011,4 hPa 0,0 l/m 12,8 km/h W-NW -5,9 C -6,8 C 31,0 km/h
13.02.2010 12:00 -0,5 C 68 % 1011,1 hPa 0,0 l/m 12,9 km/h NW -5,7 C -6,2 C 31,0 km/h
13.02.2010 13:00 -0,3 C 67 % 1010,9 hPa 0,3 l/m 12,6 km/h NW -5,6 C -5,7 C 28,5 km/h
13.02.2010 14:00 -0,2 C 67 % 1010,8 hPa 0,0 l/m 11,4 km/h W-NW -5,6 C -4,7 C 26,6 km/h
13.02.2010 15:00 -0,2 C 67 % 1011,1 hPa 0,0 l/m 10,5 km/h W-NW -5,5 C -3,8 C 22,5 km/h
13.02.2010 16:00 -0,4 C 68 % 1011,3 hPa 0,0 l/m 9,6 km/h NW -5,5 C -3,6 C 22,1 km/h
13.02.2010 17:00 -1,0 C 70 % 1011,5 hPa 0,0 l/m 10,0 km/h W -5,9 C -4,6 C 23,7 km/h
13.02.2010 18:00 -1,4 C 71 % 1011,8 hPa 0,0 l/m 10,6 km/h NW -6,0 C -5,6 C 23,7 km/h
13.02.2010 19:00 -1,6 C 71 % 1012,4 hPa 0,0 l/m 9,2 km/h W-NW -6,2 C -4,5 C 24,1 km/h
13.02.2010 20:00 -1,6 C 71 % 1013,0 hPa 0,0 l/m 7,2 km/h W-NW -6,2 C -2,7 C 18,9 km/h
13.02.2010 21:00 -1,8 C 70 % 1013,2 hPa 0,0 l/m 8,0 km/h W -6,5 C -3,5 C 20,9 km/h
13.02.2010 22:00 -1,7 C 70 % 1013,1 hPa 0,0 l/m 7,2 km/h N-NW -6,4 C -2,6 C 18,5 km/h
13.02.2010 23:00 -1,7 C 70 % 1013,4 hPa 0,0 l/m 6,9 km/h NW -6,4 C -2,7 C 17,7 km/h
14.02.2010 00:00 -1,7 C 70 % 1013,5 hPa 0,0 l/m 5,5 km/h NW -6,4 C -1,7 C 13,7 km/h
14.02.2010 01:00 -1,8 C 70 % 1013,3 hPa 0,0 l/m 6,1 km/h W-NW -6,5 C -1,9 C 16,1 km/h
14.02.2010 02:00 -2,2 C 70 % 1013,1 hPa 0,0 l/m 5,9 km/h W-NW -6,9 C -2,3 C 14,5 km/h
14.02.2010 03:00 -2,3 C 72 % 1012,8 hPa 0,0 l/m 4,4 km/h W-NW -6,7 C -2,3 C 9,6 km/h
14.02.2010 04:00 -2,2 C 72 % 1012,8 hPa 0,0 l/m 4,7 km/h NW -6,5 C -2,2 C 11,7 km/h
14.02.2010 05:00 -2,1 C 72 % 1013,3 hPa 0,0 l/m 4,7 km/h NW -6,5 C -2,1 C 12,1 km/h
14.02.2010 06:00 -2,1 C 73 % 1013,5 hPa 0,0 l/m 4,6 km/h NW -6,3 C -2,1 C 9,7 km/h
14.02.2010 07:00 -2,2 C 73 % 1013,8 hPa 0,0 l/m 4,1 km/h NW -6,4 C -2,2 C 12,1 km/h
14.02.2010 08:00 -2,0 C 74 % 1013,7 hPa 0,0 l/m 4,8 km/h NW -6,0 C -2,0 C 12,1 km/h
14.02.2010 09:00 -1,7 C 73 % 1013,9 hPa 0,0 l/m 5,3 km/h NW -5,9 C -1,7 C 12,1 km/h
14.02.2010 10:00 -1,3 C 72 % 1014,0 hPa 0,0 l/m 5,8 km/h NW -5,7 C -1,3 C 16,1 km/h
14.02.2010 11:00 -1,1 C 72 % 1014,0 hPa 0,0 l/m 5,9 km/h NW -5,4 C -1,2 C 13,3 km/h
14.02.2010 12:00 -1,1 C 72 % 1013,5 hPa 0,0 l/m 6,0 km/h NW -5,5 C -1,2 C 15,7 km/h
14.02.2010 13:00 -1,1 C 71 % 1013,2 hPa 0,0 l/m 6,8 km/h NW -5,7 C -1,9 C 15,3 km/h
14.02.2010 14:00 -1,1 C 70 % 1012,7 hPa 0,0 l/m 6,3 km/h NW -5,8 C -1,3 C 16,1 km/h
14.02.2010 15:00 -1,1 C 70 % 1012,4 hPa 0,0 l/m 4,8 km/h W-SW -5,9 C -1,1 C 13,3 km/h
14.02.2010 16:00 -1,4 C 70 % 1012,2 hPa 0,0 l/m 5,3 km/h NW -6,1 C -1,4 C 12,5 km/h
14.02.2010 17:00 -1,7 C 71 % 1012,3 hPa 0,0 l/m 4,8 km/h W-NW -6,2 C -1,7 C 11,7 km/h
14.02.2010 18:00 -1,8 C 71 % 1012,8 hPa 0,0 l/m 3,2 km/h NW -6,3 C -1,8 C 8,9 km/h
14.02.2010 19:00 -1,8 C 72 % 1012,7 hPa 0,0 l/m 3,9 km/h NW -6,3 C -1,8 C 10,9 km/h
14.02.2010 20:00 -1,9 C 73 % 1012,4 hPa 0,0 l/m 5,5 km/h NW -6,1 C -1,9 C 11,7 km/h
14.02.2010 21:00 -2,0 C 73 % 1012,3 hPa 0,0 l/m 3,9 km/h N-NW -6,1 C -2,0 C 9,7 km/h
14.02.2010 22:00 -2,1 C 73 % 1012,1 hPa 0,0 l/m 3,8 km/h NW -6,2 C -2,1 C 9,7 km/h
14.02.2010 23:00 -2,2 C 73 % 1011,9 hPa 0,0 l/m 4,3 km/h W-NW -6,3 C -2,2 C 10,1 km/h
Min-Datum _ 08.02.10 13.02.10 11.02.10 - 08.02.10 - 08.02.10 11.02.10 08.02.10
_ Min-Zeit 20:30 14:00 06:45 - 19:45 - 20:15 11:15 20:00
Minimum _ -5,9 C 66 % 1000,6 hPa - 0,0 km/h - -10,6 C -10,5 C 0,0 km/h
Max-Datum _ 13.02.10 10.02.10 08.02.10 10.02.10 13.02.10 - 10.02.10 10.02.10 13.02.10
_ Max-Zeit 15:30 13:15 00:00 14:45 10:30 - 13:45 14:30 10:30
Maximum _ 0,0 C 88 % 1018,6 hPa 0,3 l/m 16,9 km/h
NW
- -3,0 C -1,0 C 38,6 km/h
N-NW
Durchschnitt _ -3,0 C 78 % 1009,1 hPa #0,5 l/m 5,3 km/h NW -6,4 C -3,9 C 13,4 km/h